Time;durP1;ratioP1;P1;durP2;ratioP2;P2;SDS_P1;SDS_P2;PMS_P1;PMS_P2;Temp;Humidity;BMP_temperature;BMP_pressure;BME280_temperature;BME280_humidity;BME280_pressure;Samples;Min_cycle;Max_cycle;Signal;HPM_P1;HPM_P2
2023/10/19 00:02:08;;;;;;;13.15;7.03;;;;;;;12.07;100.00;99088.84;5117586;27;20485;-92
2023/10/19 00:04:35;;;;;;;12.17;7.33;;;;;;;12.07;100.00;99083.41;5117701;27;20398;-91
2023/10/19 00:07:08;;;;;;;11.75;7.25;;;;;;;12.09;100.00;99084.78;5135897;27;20041;-92
2023/10/19 00:09:37;;;;;;;9.93;7.20;;;;;;;12.11;100.00;99098.91;5083993;27;20043;-91
2023/10/19 00:12:09;;;;;;;9.50;7.10;;;;;;;12.10;100.00;99107.34;5117381;27;20034;-92
2023/10/19 00:14:35;;;;;;;10.45;7.90;;;;;;;12.13;100.00;99103.28;5117570;27;20069;-91
2023/10/19 00:17:05;;;;;;;10.15;7.47;;;;;;;12.10;100.00;99089.09;5117431;27;20119;-92
2023/10/19 00:19:39;;;;;;;9.55;7.30;;;;;;;12.12;100.00;99088.88;5116863;27;20035;-91
2023/10/19 00:22:08;;;;;;;12.48;7.53;;;;;;;12.11;100.00;99093.47;5118084;27;20050;-91
2023/10/19 00:24:38;;;;;;;12.07;7.43;;;;;;;12.14;100.00;99091.31;5117154;27;20483;-91
2023/10/19 00:27:14;;;;;;;11.02;7.38;;;;;;;12.19;100.00;99085.88;5100476;27;20100;-91
2023/10/19 00:29:49;;;;;;;10.25;6.93;;;;;;;12.18;100.00;99082.34;5102298;27;20039;-92
2023/10/19 00:32:15;;;;;;;10.15;6.88;;;;;;;12.23;100.00;99084.25;5116864;27;20031;-91
2023/10/19 00:34:42;;;;;;;10.80;6.53;;;;;;;12.24;100.00;99078.56;5117421;27;20471;-92
2023/10/19 00:37:10;;;;;;;10.67;6.73;;;;;;;12.27;100.00;99088.88;5117102;27;20062;-92
2023/10/19 00:39:50;;;;;;;10.38;7.03;;;;;;;12.26;100.00;99081.00;5135270;27;20590;-90
2023/10/19 00:42:30;;;;;;;10.20;6.90;;;;;;;12.27;100.00;99079.91;5117952;27;20131;-91
2023/10/19 00:45:01;;;;;;;9.13;6.93;;;;;;;12.29;100.00;99081.25;5117145;27;20115;-92
2023/10/19 00:47:37;;;;;;;;;;;;;;;;;;;;;
2023/10/19 00:50:05;;;;;;;8.73;6.50;;;;;;;12.34;100.00;99076.91;5135667;27;20046;-91
2023/10/19 00:52:32;;;;;;;9.05;6.50;;;;;;;12.38;100.00;99084.25;5135178;27;20043;-92
2023/10/19 00:54:58;;;;;;;8.98;6.57;;;;;;;12.39;100.00;99066.88;5117105;27;20122;-91
2023/10/19 00:57:37;;;;;;;7.90;6.05;;;;;;;12.46;100.00;99075.59;5116725;27;20039;-92
2023/10/19 01:00:12;;;;;;;8.88;5.68;;;;;;;12.48;100.00;99078.03;5102097;28;20046;-91
2023/10/19 01:02:43;;;;;;;8.27;6.20;;;;;;;12.48;100.00;99063.63;5116409;28;20057;-92
2023/10/19 01:05:12;;;;;;;8.77;6.43;;;;;;;12.51;100.00;99069.31;5116986;27;20023;-92
2023/10/19 01:07:39;;;;;;;8.15;6.50;;;;;;;12.55;100.00;99077.75;5116817;27;20107;-92
2023/10/19 01:10:11;;;;;;;9.23;6.10;;;;;;;12.58;100.00;99077.22;5134916;27;20038;-91
2023/10/19 01:12:39;;;;;;;7.40;5.63;;;;;;;12.60;100.00;99075.84;5116906;27;20035;-92
2023/10/19 01:17:43;;;;;;;7.78;5.80;;;;;;;12.67;100.00;99080.19;5135375;28;20077;-91
2023/10/19 01:28:24;;;;;;;6.33;4.43;;;;;;;12.78;100.00;99068.22;5116670;28;20046;-91
2023/10/19 01:30:52;;;;;;;6.63;4.50;;;;;;;12.81;100.00;99063.06;5118848;27;20122;-91
2023/10/19 01:33:24;;;;;;;6.55;4.28;;;;;;;12.88;100.00;99070.13;5120528;27;20041;-92
2023/10/19 01:38:34;;;;;;;5.03;3.90;;;;;;;12.93;100.00;99070.09;5139514;27;20125;-92
2023/10/19 01:41:18;;;;;;;6.47;4.13;;;;;;;12.94;100.00;99066.31;5120496;27;20046;-91
2023/10/19 01:43:51;;;;;;;8.75;4.40;;;;;;;12.97;100.00;99063.03;5120727;27;20066;-91
2023/10/19 01:46:25;;;;;;;5.90;4.15;;;;;;;12.99;100.00;99063.56;5120685;27;20039;-91
2023/10/19 01:48:55;;;;;;;6.68;3.85;;;;;;;13.00;100.00;99067.94;5121772;27;20082;-92
2023/10/19 01:51:26;;;;;;;6.40;4.20;;;;;;;13.03;100.00;99059.19;5119840;27;20031;-92
2023/10/19 01:53:52;;;;;;;5.67;3.80;;;;;;;13.07;100.00;99063.00;5119597;27;20043;-91
2023/10/19 01:56:18;;;;;;;8.15;3.42;;;;;;;13.11;100.00;99066.81;5138286;27;20044;-92
2023/10/19 01:58:51;;;;;;;8.27;3.40;;;;;;;13.12;100.00;99073.91;5119999;27;20052;-92
2023/10/19 02:01:28;;;;;;;5.22;2.65;;;;;;;13.17;100.00;99075.81;5138459;27;20038;-92
2023/10/19 02:03:58;;;;;;;6.15;2.47;;;;;;;13.21;100.00;99071.41;5120447;27;20032;-92
2023/10/19 02:06:37;;;;;;;5.87;2.40;;;;;;;13.23;100.00;99068.41;5120421;27;20035;-91
2023/10/19 02:09:17;;;;;;;3.60;2.30;;;;;;;13.29;100.00;99075.50;5119831;27;20048;-92
2023/10/19 02:11:47;;;;;;;4.18;1.88;;;;;;;13.29;100.00;99070.06;5119965;27;20061;-92
2023/10/19 02:14:16;;;;;;;4.60;1.98;;;;;;;13.33;100.00;99069.22;5120189;27;20031;-91
2023/10/19 02:16:43;;;;;;;5.20;1.85;;;;;;;13.36;100.00;99064.31;5119817;27;20035;-92
2023/10/19 02:19:11;;;;;;;3.30;1.63;;;;;;;13.38;100.00;99056.72;5119880;27;20039;-92
2023/10/19 02:21:42;;;;;;;7.20;1.30;;;;;;;13.42;100.00;99055.03;5119974;27;20031;-91
2023/10/19 02:24:09;;;;;;;4.82;1.35;;;;;;;13.46;100.00;99056.13;5119720;27;20084;-91
2023/10/19 02:26:37;;;;;;;3.40;1.00;;;;;;;13.45;100.00;99049.88;5102595;27;20072;-91
2023/10/19 02:29:07;;;;;;;6.55;0.93;;;;;;;13.53;100.00;99069.47;5119257;27;20035;-91
2023/10/19 02:31:34;;;;;;;5.00;1.00;;;;;;;13.53;100.00;99067.53;5120153;27;20044;-91
2023/10/19 02:34:00;;;;;;;8.88;1.10;;;;;;;13.56;100.00;99068.91;5119287;27;20151;-92
2023/10/19 02:36:32;;;;;;;2.83;0.70;;;;;;;13.59;100.00;99069.16;5119363;27;20044;-92
2023/10/19 02:39:08;;;;;;;3.80;0.70;;;;;;;13.60;100.00;99061.81;5119650;27;20272;-92
2023/10/19 02:41:39;;;;;;;4.20;1.00;;;;;;;13.61;100.00;99060.69;5118898;27;20042;-92
2023/10/19 02:44:21;;;;;;;8.38;1.20;;;;;;;13.63;100.00;99070.22;5119220;27;20059;-91
2023/10/19 02:46:50;;;;;;;4.35;0.82;;;;;;;13.63;100.00;99053.06;5119504;27;20111;-91
2023/10/19 02:49:21;;;;;;;3.58;0.70;;;;;;;13.61;100.00;99056.06;5118833;27;20044;-91
2023/10/19 02:51:48;;;;;;;5.37;0.97;;;;;;;13.64;100.00;99057.41;5102689;27;20059;-91
2023/10/19 02:54:19;;;;;;;8.38;1.00;;;;;;;13.64;100.00;99060.97;5118899;27;20038;-91
2023/10/19 02:56:56;;;;;;;2.92;0.98;;;;;;;13.65;100.00;99048.13;5118938;27;20039;-91
2023/10/19 02:59:29;;;;;;;4.97;1.02;;;;;;;13.69;100.00;99054.66;5118661;27;20502;-91
2023/10/19 03:04:38;;;;;;;3.63;0.80;;;;;;;13.69;100.00;99050.03;5137739;27;20074;-91
2023/10/19 03:07:07;;;;;;;4.72;1.20;;;;;;;13.70;100.00;99050.84;5119164;27;20039;-91
2023/10/19 03:09:36;;;;;;;4.55;1.10;;;;;;;13.69;100.00;99043.78;5118539;27;20122;-92
2023/10/19 03:12:09;;;;;;;4.82;0.95;;;;;;;13.71;100.00;99047.00;5118452;27;20424;-91
2023/10/19 03:14:34;;;;;;;5.82;1.00;;;;;;;13.71;100.00;99044.28;5136947;27;20416;-91
2023/10/19 03:17:05;;;;;;;3.77;0.90;;;;;;;13.71;100.00;99047.00;5118553;27;20042;-92
2023/10/19 03:19:35;;;;;;;4.05;0.80;;;;;;;13.72;100.00;99045.94;5118620;27;20031;-91
2023/10/19 03:22:03;;;;;;;6.38;1.17;;;;;;;13.74;100.00;99051.09;5102481;27;20043;-91
2023/10/19 03:24:40;;;;;;;3.37;1.20;;;;;;;13.73;100.00;99041.28;5118306;27;20070;-92
2023/10/19 03:30:27;;;;;;;3.38;1.08;;;;;;;13.72;100.00;99035.03;5136453;27;20080;-91
2023/10/19 03:32:53;;;;;;;3.97;1.10;;;;;;;13.74;100.00;99027.38;5118622;27;20429;-91
2023/10/19 03:35:20;;;;;;;5.33;1.00;;;;;;;13.74;100.00;99018.41;5118052;27;20553;-92
2023/10/19 03:37:48;;;;;;;2.40;0.90;;;;;;;13.74;100.00;99018.41;5118151;27;20096;-91
2023/10/19 03:40:20;;;;;;;4.15;1.10;;;;;;;13.75;100.00;99025.47;5118151;27;20042;-92
2023/10/19 03:42:46;;;;;;;4.20;1.15;;;;;;;13.74;100.00;99024.66;5117817;27;20048;-91
2023/10/19 03:45:14;;;;;;;1.58;0.85;;;;;;;13.75;100.00;99022.75;5137029;27;20053;-92
2023/10/19 03:47:43;;;;;;;4.20;0.80;;;;;;;13.76;100.00;99033.38;5117854;27;20122;-92
2023/10/19 03:50:20;;;;;;;3.30;0.98;;;;;;;13.76;100.00;99030.66;5118593;27;20490;-92
2023/10/19 03:52:48;;;;;;;2.03;0.80;;;;;;;13.76;100.00;99024.38;5101048;27;20046;-92
2023/10/19 03:55:19;;;;;;;7.07;0.90;;;;;;;13.76;100.00;99022.47;5118623;27;20043;-92
2023/10/19 03:57:52;;;;;;;4.30;0.90;;;;;;;13.72;100.00;99015.94;5118722;27;20384;-92
2023/10/19 04:00:24;;;;;;;4.47;1.17;;;;;;;13.74;100.00;99023.84;5118682;27;20051;-92
2023/10/19 04:02:53;;;;;;;6.22;1.10;;;;;;;13.71;100.00;99027.94;5117847;27;20027;-92
2023/10/19 04:05:22;;;;;;;2.25;0.77;;;;;;;13.66;100.00;99020.59;5117880;27;20038;-91
2023/10/19 04:07:55;;;;;;;3.20;0.88;;;;;;;13.65;100.00;99018.16;5117599;27;20046;-91
2023/10/19 04:10:44;;;;;;;4.30;1.10;;;;;;;13.65;100.00;99012.72;5117974;27;20034;-92
2023/10/19 04:13:14;;;;;;;8.73;0.73;;;;;;;13.68;100.00;99020.31;5117537;27;20187;-91
2023/10/19 04:15:42;;;;;;;4.85;0.98;;;;;;;13.68;100.00;99014.88;5136005;27;20035;-92
2023/10/19 04:18:10;;;;;;;3.20;0.70;;;;;;;13.67;100.00;99016.81;5135806;27;20506;-92
2023/10/19 04:23:20;;;;;;;5.20;0.90;;;;;;;13.71;100.00;99016.22;5135768;27;20066;-91
2023/10/19 04:25:46;;;;;;;4.20;0.80;;;;;;;13.68;100.00;99023.06;5100427;27;20043;-92
2023/10/19 04:28:13;;;;;;;4.05;0.70;;;;;;;13.68;100.00;99017.59;5117163;27;20042;-92
2023/10/19 04:30:41;;;;;;;4.63;0.88;;;;;;;13.66;100.00;99017.09;5117440;27;20039;-93
2023/10/19 04:33:10;;;;;;;5.23;1.03;;;;;;;13.67;100.00;99018.69;5116962;27;20043;-92
2023/10/19 04:35:37;;;;;;;7.13;0.98;;;;;;;13.62;100.00;99010.56;5100994;27;20067;-92
2023/10/19 04:38:07;;;;;;;5.40;0.95;;;;;;;13.59;100.00;99008.41;5117153;27;20551;-92
2023/10/19 04:40:35;;;;;;;3.38;0.95;;;;;;;13.56;100.00;99020.66;5135575;27;20070;-92
2023/10/19 04:43:05;;;;;;;5.38;1.10;;;;;;;13.54;100.00;99019.31;5100841;27;20045;-92
2023/10/19 04:45:39;;;;;;;3.77;0.90;;;;;;;13.51;100.00;99016.06;5117947;27;20037;-91
2023/10/19 04:48:07;;;;;;;6.22;0.80;;;;;;;13.48;100.00;99018.53;5116792;27;20133;-92
2023/10/19 04:50:33;;;;;;;4.38;1.00;;;;;;;13.47;100.00;99022.34;5117080;27;20062;-92
2023/10/19 04:52:59;;;;;;;5.87;1.00;;;;;;;13.47;100.00;99033.25;5116706;27;20398;-94
2023/10/19 04:55:24;;;;;;;5.68;1.10;;;;;;;13.44;100.00;99026.44;5117363;28;20046;-92
2023/10/19 04:57:50;;;;;;;3.37;0.80;;;;;;;13.43;100.00;99026.72;5116871;27;20039;-92
2023/10/19 05:00:17;;;;;;;9.27;1.05;;;;;;;13.42;100.00;99025.91;5116793;27;20125;-92
2023/10/19 05:02:45;;;;;;;5.50;1.07;;;;;;;13.42;100.00;99034.09;5116793;27;20386;-92
2023/10/19 05:05:16;;;;;;;3.78;1.17;;;;;;;13.41;100.00;99032.44;5117066;28;20031;-92
2023/10/19 05:07:44;;;;;;;7.15;1.10;;;;;;;13.40;100.00;99032.72;5117177;27;20039;-92
2023/10/19 05:10:11;;;;;;;5.47;0.95;;;;;;;13.41;100.00;99039.81;5117410;28;20038;-92
2023/10/19 05:12:41;;;;;;;8.48;1.10;;;;;;;13.37;100.00;99030.56;5099840;27;20065;-93
2023/10/19 05:15:06;;;;;;;3.30;1.17;;;;;;;13.37;100.00;99025.91;5116726;28;20043;-89
2023/10/19 05:17:32;;;;;;;5.55;1.10;;;;;;;13.40;100.00;99032.72;5116480;28;20175;-88
2023/10/19 05:19:57;;;;;;;4.33;1.27;;;;;;;13.38;100.00;99038.44;5099234;28;20130;-88
2023/10/19 05:22:24;;;;;;;6.67;1.30;;;;;;;13.37;100.00;99039.53;5099218;28;20039;-89
2023/10/19 05:24:50;;;;;;;8.90;1.20;;;;;;;13.34;100.00;99037.38;5116095;28;20171;-88
2023/10/19 05:27:17;;;;;;;8.50;1.58;;;;;;;13.33;100.00;99032.97;5116115;28;20035;-88
2023/10/19 05:29:43;;;;;;;7.32;1.50;;;;;;;13.32;100.00;99036.81;5116035;28;20027;-90
2023/10/19 05:32:09;;;;;;;5.23;1.17;;;;;;;13.31;100.00;99027.00;5115639;28;20045;-89
2023/10/19 05:34:35;;;;;;;5.80;1.20;;;;;;;13.32;100.00;99031.38;5116012;28;20057;-90
2023/10/19 05:37:06;;;;;;;2.97;0.90;;;;;;;13.33;100.00;99041.97;5116273;28;20364;-90
2023/10/19 05:39:33;;;;;;;6.47;1.30;;;;;;;13.33;100.00;99047.44;5116226;28;20042;-90
2023/10/19 05:42:06;;;;;;;7.68;1.17;;;;;;;13.32;100.00;99048.50;5116599;28;20069;-89
2023/10/19 05:44:34;;;;;;;4.75;1.33;;;;;;;13.32;100.00;99045.78;5100043;28;20043;-89
2023/10/19 05:47:02;;;;;;;3.92;1.13;;;;;;;13.35;100.00;99049.91;5134325;28;20046;-89
2023/10/19 05:49:32;;;;;;;5.85;1.30;;;;;;;13.35;100.00;99049.09;5116132;28;20039;-89
2023/10/19 05:51:58;;;;;;;8.27;0.97;;;;;;;13.35;100.00;99052.63;5113926;28;20070;-89
2023/10/19 05:54:24;;;;;;;3.88;1.15;;;;;;;13.36;100.00;99048.81;5099417;28;20051;-89
2023/10/19 05:56:52;;;;;;;6.63;1.48;;;;;;;13.37;100.00;99047.72;5116122;28;20380;-89
2023/10/19 05:59:20;;;;;;;4.10;1.10;;;;;;;13.38;100.00;99054.00;5115793;28;20047;-89
2023/10/19 06:01:46;;;;;;;7.50;1.63;;;;;;;13.40;100.00;99057.25;5099281;28;20035;-89
2023/10/19 06:04:13;;;;;;;9.88;1.23;;;;;;;13.44;100.00;99053.69;5116824;28;20042;-90
2023/10/19 06:06:39;;;;;;;10.98;1.42;;;;;;;13.51;100.00;99054.19;5115828;28;20058;-88
2023/10/19 06:09:09;;;;;;;5.47;1.40;;;;;;;13.54;100.00;99047.38;5134374;28;20039;-88
2023/10/19 06:11:37;;;;;;;8.93;1.20;;;;;;;13.52;100.00;99052.28;5100713;28;20035;-88
2023/10/19 06:14:06;;;;;;;6.70;1.20;;;;;;;13.54;100.00;99058.28;5115944;28;20027;-90
2023/10/19 06:16:33;;;;;;;14.77;1.77;;;;;;;13.56;100.00;99061.53;5117598;27;20039;-89
2023/10/19 06:18:58;;;;;;;14.10;1.27;;;;;;;13.54;100.00;99060.16;5120153;27;20074;-90
2023/10/19 06:21:33;;;;;;;9.73;1.50;;;;;;;13.55;100.00;99062.63;5119532;27;20063;-90
2023/10/19 06:23:59;;;;;;;19.85;1.98;;;;;;;13.64;100.00;99057.41;5119767;27;20027;-94
2023/10/19 06:26:24;;;;;;;21.10;1.80;;;;;;;13.92;100.00;99057.81;5139346;27;20042;-92
2023/10/19 06:28:50;;;;;;;50.93;3.17;;;;;;;14.11;100.00;99063.44;5121310;27;20035;-89
2023/10/19 06:31:17;;;;;;;16.67;1.50;;;;;;;14.12;100.00;99059.63;5139282;27;20607;-90
2023/10/19 06:33:42;;;;;;;358.00;24.10;;;;;;;14.17;100.00;99063.13;5138330;27;20023;-91
2023/10/19 06:36:08;;;;;;;104.87;6.37;;;;;;;14.23;100.00;99071.25;5120191;27;20058;-92
2023/10/19 06:38:34;;;;;;;55.77;5.13;;;;;;;14.25;100.00;99080.00;5102688;27;20316;-90
2023/10/19 06:41:12;;;;;;;356.00;22.63;;;;;;;14.31;100.00;99079.66;5121608;27;20066;-96
2023/10/19 06:43:39;;;;;;;46.37;3.87;;;;;;;14.37;100.00;99075.00;5121153;27;20371;-93
2023/10/19 06:46:05;;;;;;;36.00;3.35;;;;;;;14.44;100.00;99078.22;5119646;27;20062;-92
2023/10/19 06:48:31;;;;;;;57.78;4.60;;;;;;;14.45;100.00;99074.38;5103611;27;20043;-90
2023/10/19 06:50:59;;;;;;;32.03;3.00;;;;;;;14.48;100.00;99075.72;5104232;27;20524;-93
2023/10/19 07:00:15;;;;;;;43.05;3.90;;;;;;;14.58;100.00;99083.84;5109319;27;20062;-87
2023/10/19 07:02:51;;;;;;;15.85;1.77;;;;;;;14.60;100.00;99086.28;5118799;27;20043;-93
2023/10/19 07:05:24;;;;;;;26.77;3.42;;;;;;;14.66;100.00;99079.69;5119073;27;20547;-92
2023/10/19 07:07:54;;;;;;;18.20;2.43;;;;;;;14.65;100.00;99089.81;5119384;27;20035;-90
2023/10/19 07:10:20;;;;;;;20.05;2.25;;;;;;;14.69;100.00;99085.41;5118768;27;20039;-88
2023/10/19 07:12:48;;;;;;;22.13;3.05;;;;;;;14.74;100.00;99079.91;5119025;27;20198;-93
2023/10/19 07:15:14;;;;;;;11.43;1.90;;;;;;;14.76;100.00;99087.81;5118623;27;20035;-86
2023/10/19 07:17:41;;;;;;;20.40;2.78;;;;;;;14.78;100.00;99091.09;5118595;27;20439;-86
2023/10/19 07:20:09;;;;;;;29.77;3.40;;;;;;;14.78;100.00;99095.72;5118171;27;20046;-86
2023/10/19 07:22:42;;;;;;;7.40;1.92;;;;;;;14.73;100.00;99082.91;5118697;27;20046;-87
2023/10/19 07:25:09;;;;;;;5.60;1.40;;;;;;;14.69;100.00;99087.31;5102179;27;20038;-85
2023/10/19 07:27:34;;;;;;;12.18;2.13;;;;;;;14.70;100.00;99086.22;5116891;28;20039;-86
2023/10/19 07:30:09;;;;;;;12.87;1.97;;;;;;;14.79;100.00;99087.22;5101346;27;20364;-86
2023/10/19 07:32:34;;;;;;;24.55;2.35;;;;;;;14.94;100.00;99080.84;5118250;27;20471;-86
2023/10/19 07:35:00;;;;;;;11.83;1.90;;;;;;;15.06;100.00;99083.19;5136303;27;20080;-88
2023/10/19 07:37:27;;;;;;;8.43;1.88;;;;;;;15.06;100.00;99078.53;5118341;27;20125;-87
2023/10/19 07:39:55;;;;;;;10.15;2.13;;;;;;;15.12;100.00;99081.19;5117918;27;20126;-86
2023/10/19 07:42:21;;;;;;;10.30;1.87;;;;;;;15.20;100.00;99072.38;5117895;27;20147;-87
2023/10/19 07:44:47;;;;;;;6.47;1.67;;;;;;;15.19;100.00;99068.84;5117591;27;20511;-86
2023/10/19 07:47:13;;;;;;;11.57;2.10;;;;;;;15.18;100.00;99075.41;5101084;27;20284;-86
2023/10/19 07:49:39;;;;;;;43.33;3.00;;;;;;;15.19;100.00;99070.75;5118428;27;20042;-89
2023/10/19 07:52:10;;;;;;;13.77;1.80;;;;;;;15.26;100.00;99071.22;5119319;27;20039;-89
2023/10/19 07:54:39;;;;;;;1186.85;103.78;;;;;;;15.32;100.00;99069.25;5118803;27;20047;-89
2023/10/19 07:57:07;;;;;;;509.00;37.47;;;;;;;15.43;100.00;99082.50;5119969;27;20031;-96
2023/10/19 08:01:41;;;;;;;97.87;6.13;;;;;;;15.44;100.00;99066.91;5112426;27;1359629;-83
2023/10/19 08:04:07;;;;;;;196.93;15.60;;;;;;;15.46;100.00;99070.19;5132736;27;20277;-90
2023/10/19 08:06:35;;;;;;;173.02;10.05;;;;;;;15.55;100.00;99068.44;5132096;27;20086;-87
2023/10/19 08:09:00;;;;;;;125.73;11.97;;;;;;;15.56;100.00;99061.03;5130993;28;20031;-91
2023/10/19 08:11:26;;;;;;;49.70;4.15;;;;;;;15.65;100.00;99061.19;5114256;28;20180;-87
2023/10/19 08:13:51;;;;;;;163.70;12.60;;;;;;;15.73;100.00;99066.03;5131288;28;20079;-89
2023/10/19 08:16:16;;;;;;;93.33;6.40;;;;;;;15.81;100.00;99056.38;5132673;27;20059;-88
2023/10/19 08:18:47;;;;;;;81.23;7.20;;;;;;;15.88;100.00;99059.56;5133579;28;20467;-92
2023/10/19 08:21:15;;;;;;;92.70;7.85;;;;;;;15.91;100.00;99054.31;5130749;28;20030;-88
2023/10/19 08:23:45;;;;;;;90.53;7.60;;;;;;;15.97;100.00;99049.59;5129934;28;20024;-86
2023/10/19 08:26:21;;;;;;;13.57;1.63;;;;;;;15.93;100.00;99049.38;5132168;28;20093;-96
2023/10/19 08:28:46;;;;;;;67.10;4.97;;;;;;;16.00;100.00;99045.47;5130897;28;20023;-85
2023/10/19 08:31:12;;;;;;;26.43;3.57;;;;;;;16.00;100.00;99051.72;5130752;28;20061;-90
2023/10/19 08:33:38;;;;;;;48.40;3.67;;;;;;;16.07;100.00;99056.84;5114014;28;20032;-87
2023/10/19 08:36:07;;;;;;;31.52;3.28;;;;;;;16.06;100.00;99047.84;5130946;28;20030;-85
2023/10/19 08:38:33;;;;;;;9.15;2.05;;;;;;;16.00;100.00;99054.47;5131823;27;20038;-86
2023/10/19 08:40:59;;;;;;;10.40;1.53;;;;;;;15.89;100.00;99044.81;5131690;27;20023;-85
2023/10/19 08:43:28;;;;;;;22.52;2.55;;;;;;;15.90;100.00;99044.50;5130429;28;20070;-85
2023/10/19 08:45:55;;;;;;;11.55;2.17;;;;;;;15.83;100.00;99048.72;5130838;28;20067;-84
2023/10/19 08:48:20;;;;;;;14.27;1.80;;;;;;;15.78;100.00;99046.84;5131236;27;20028;-85
2023/10/19 08:50:49;;;;;;;18.23;2.03;;;;;;;15.79;100.00;99035.59;5113098;28;20118;-88
2023/10/19 08:53:16;;;;;;;9.50;2.47;;;;;;;15.72;100.00;99046.09;5112412;28;20044;-85
2023/10/19 08:55:43;;;;;;;12.90;1.80;;;;;;;15.70;100.00;99045.56;5129144;28;20031;-86
2023/10/19 08:58:09;;;;;;;7.38;2.03;;;;;;;15.70;100.00;99052.94;5129446;28;20027;-84
2023/10/19 09:00:50;;;;;;;11.77;1.60;;;;;;;15.65;100.00;99051.09;5112285;28;20380;-83
2023/10/19 09:03:18;;;;;;;12.95;1.88;;;;;;;15.57;100.00;99052.53;5129204;28;20046;-86
2023/10/19 09:05:46;;;;;;;7.60;1.80;;;;;;;15.58;100.00;99042.44;5129954;28;20034;-86
2023/10/19 09:08:38;;;;;;;5.78;1.50;;;;;;;15.58;100.00;99035.03;5129642;28;20062;-85
2023/10/19 09:11:13;;;;;;;7.88;1.33;;;;;;;15.55;100.00;99034.81;5127312;28;20042;-86
2023/10/19 09:13:46;;;;;;;8.53;1.60;;;;;;;15.60;100.00;99030.13;5117245;28;20026;-85
2023/10/19 09:16:16;;;;;;;6.40;1.20;;;;;;;15.63;100.00;99031.41;5115337;28;20491;-86
2023/10/19 09:18:42;;;;;;;8.02;1.50;;;;;;;15.66;100.00;99019.09;5116685;27;20054;-86
2023/10/19 09:21:11;;;;;;;9.30;1.50;;;;;;;15.69;100.00;99015.78;5115598;28;20032;-86
2023/10/19 09:23:41;;;;;;;7.53;1.52;;;;;;;15.72;100.00;99009.72;5115427;28;20092;-86
2023/10/19 09:26:15;;;;;;;9.00;2.00;;;;;;;15.76;100.00;99011.56;5115918;28;20089;-86
2023/10/19 09:28:46;;;;;;;8.52;1.58;;;;;;;15.83;100.00;99016.72;5116082;28;20080;-85
2023/10/19 09:31:11;;;;;;;8.77;1.80;;;;;;;15.93;100.00;99013.81;5099487;28;20437;-86
2023/10/19 09:33:40;;;;;;;6.90;1.40;;;;;;;16.01;100.00;99017.00;5114948;28;20034;-85
2023/10/19 09:36:12;;;;;;;10.52;1.58;;;;;;;16.10;100.00;99016.03;5115441;28;20121;-85
2023/10/19 09:38:48;;;;;;;7.35;1.30;;;;;;;16.15;100.00;99015.16;5115451;28;20040;-85
2023/10/19 09:41:19;;;;;;;11.80;2.40;;;;;;;16.24;100.00;99028.94;5115441;28;20030;-85
2023/10/19 09:43:48;;;;;;;10.50;1.75;;;;;;;16.29;100.00;99024.22;5114876;28;20031;-85
2023/10/19 09:46:21;;;;;;;9.67;1.50;;;;;;;16.33;100.00;99013.50;5115205;28;20038;-85
2023/10/19 09:48:48;;;;;;;15.63;1.92;;;;;;;16.40;100.00;99008.47;5116407;28;20112;-85
2023/10/19 09:51:16;;;;;;;6.95;1.60;;;;;;;16.41;100.00;99004.59;5116428;28;20097;-85
2023/10/19 09:53:50;;;;;;;9.68;1.92;;;;;;;16.47;100.00;99000.66;5115484;28;20464;-85
2023/10/19 09:56:25;;;;;;;7.38;1.48;;;;;;;16.53;100.00;99000.59;5114625;28;20556;-85
2023/10/19 09:59:04;;;;;;;8.67;1.53;;;;;;;16.62;100.00;99002.34;5116475;28;20460;-85
2023/10/19 10:02:17;;;;;;;7.45;1.55;;;;;;;16.73;100.00;98988.47;5114554;28;20051;-86
2023/10/19 10:04:45;;;;;;;5.07;1.23;;;;;;;16.84;100.00;98995.38;5033242;28;20112;-86
2023/10/19 10:07:11;;;;;;;9.25;1.80;;;;;;;16.91;100.00;98992.28;5103094;28;20399;-86
2023/10/19 10:09:43;;;;;;;5.53;1.63;;;;;;;16.98;100.00;98995.44;5114722;28;20028;-86
2023/10/19 10:12:21;;;;;;;9.35;1.95;;;;;;;17.06;100.00;99000.19;5114707;28;20062;-86
2023/10/19 10:15:16;;;;;;;9.20;1.77;;;;;;;17.18;100.00;99005.16;5115200;28;20047;-86
2023/10/19 10:17:54;;;;;;;11.55;2.13;;;;;;;17.24;100.00;98997.66;5111682;28;20031;-86
2023/10/19 10:20:27;;;;;;;12.23;2.20;;;;;;;17.30;100.00;99005.50;5114760;28;20383;-87
2023/10/19 10:23:21;;;;;;;9.10;1.70;;;;;;;17.41;100.00;99003.34;5093048;28;20040;-87
2023/10/19 10:25:50;;;;;;;6.85;1.40;;;;;;;17.46;100.00;99003.22;5093745;28;20111;-86
2023/10/19 10:28:17;;;;;;;8.73;1.60;;;;;;;17.51;100.00;99025.06;5113626;28;20475;-86
2023/10/19 10:31:24;;;;;;;10.73;1.65;;;;;;;17.61;100.00;99007.59;5114124;28;20499;-86
2023/10/19 10:33:57;;;;;;;8.53;1.77;;;;;;;17.62;100.00;99009.19;5115766;28;20064;-86
2023/10/19 10:36:23;;;;;;;8.77;1.60;;;;;;;17.63;100.00;99008.09;5114727;28;20042;-86
2023/10/19 10:38:50;;;;;;;9.70;1.65;;;;;;;17.65;100.00;99007.78;5097065;28;20040;-87
2023/10/19 10:41:22;;;;;;;8.07;1.48;;;;;;;17.66;100.00;99007.47;5113846;28;20031;-87
2023/10/19 10:43:58;;;;;;;11.00;1.67;;;;;;;17.66;100.00;99009.41;5113906;28;20027;-86
2023/10/19 10:46:27;;;;;;;10.13;1.60;;;;;;;17.68;100.00;99015.38;5113763;28;20063;-87
2023/10/19 10:48:55;;;;;;;10.80;1.60;;;;;;;17.76;100.00;99019.31;5114315;28;20031;-86
2023/10/19 10:51:21;;;;;;;10.60;1.50;;;;;;;17.84;100.00;99024.09;5113814;28;20391;-86
2023/10/19 10:53:57;;;;;;;7.65;1.58;;;;;;;17.88;100.00;99014.13;5113086;28;20127;-87
2023/10/19 10:56:23;;;;;;;9.25;1.50;;;;;;;17.88;100.00;99014.94;5113984;28;20024;-87
2023/10/19 10:58:50;;;;;;;10.97;1.83;;;;;;;17.86;100.00;99013.63;5096966;28;20050;-86
2023/10/19 11:01:27;;;;;;;7.97;1.27;;;;;;;17.82;100.00;99015.34;5113630;28;20063;-87
2023/10/19 11:04:15;;;;;;;12.77;2.15;;;;;;;17.84;100.00;98997.47;5113567;28;20031;-86
2023/10/19 11:06:55;;;;;;;10.07;1.90;;;;;;;17.82;100.00;98996.97;5113690;28;20039;-86
2023/10/19 11:09:24;;;;;;;8.02;2.05;;;;;;;17.82;100.00;98987.91;5114430;28;20062;-86
2023/10/19 11:11:51;;;;;;;6.30;1.73;;;;;;;17.81;100.00;98991.81;5097859;28;20084;-86
2023/10/19 11:14:26;;;;;;;9.63;2.00;;;;;;;17.83;100.00;98976.66;5097419;28;20076;-86
2023/10/19 11:16:52;;;;;;;12.10;2.08;;;;;;;17.84;100.00;98975.53;5114318;28;20059;-87
2023/10/19 11:19:17;;;;;;;9.10;2.00;;;;;;;17.93;100.00;98972.88;5113442;28;20066;-87
2023/10/19 11:21:54;;;;;;;9.93;1.80;;;;;;;17.99;100.00;98963.41;5113069;28;20486;-86
2023/10/19 11:24:46;;;;;;;6.47;1.65;;;;;;;18.13;100.00;98966.13;5112961;28;20028;-86
2023/10/19 11:27:12;;;;;;;8.45;2.00;;;;;;;18.18;100.00;98962.44;5113156;28;20016;-87
2023/10/19 11:29:38;;;;;;;11.97;2.70;;;;;;;18.22;100.00;98966.97;5114042;28;20027;-86
2023/10/19 11:32:04;;;;;;;9.20;1.80;;;;;;;18.24;100.00;98972.94;5113790;28;20034;-86
2023/10/19 11:34:37;;;;;;;8.00;2.25;;;;;;;18.24;100.00;98961.16;5113996;28;20050;-86
2023/10/19 11:37:04;;;;;;;7.13;1.90;;;;;;;18.26;100.00;98947.13;5114733;28;20063;-87
2023/10/19 11:39:30;;;;;;;6.83;1.57;;;;;;;18.24;100.00;98951.00;5114471;28;20028;-86
2023/10/19 11:41:56;;;;;;;9.27;1.83;;;;;;;18.19;100.00;98942.91;5113012;28;20042;-87
2023/10/19 11:44:22;;;;;;;8.23;1.60;;;;;;;18.16;100.00;98942.69;5112882;28;20055;-87
2023/10/19 11:46:48;;;;;;;9.07;2.13;;;;;;;18.09;100.00;98936.88;5112779;28;20099;-87
2023/10/19 11:49:16;;;;;;;8.65;2.05;;;;;;;18.00;100.00;98942.28;5112621;28;20076;-86
2023/10/19 11:51:45;;;;;;;8.13;1.95;;;;;;;17.95;100.00;98934.16;5112049;28;20031;-86
2023/10/19 11:54:10;;;;;;;5.35;1.52;;;;;;;17.87;100.00;98941.97;5113542;28;20028;-86
2023/10/19 11:56:35;;;;;;;8.63;1.97;;;;;;;17.84;100.00;98934.38;5114532;28;20031;-86
2023/10/19 11:59:03;;;;;;;8.50;1.77;;;;;;;17.76;100.00;98940.63;5112961;28;20023;-86
2023/10/19 12:01:35;;;;;;;7.25;1.60;;;;;;;17.71;100.00;98940.72;5095461;28;20134;-86
2023/10/19 12:04:02;;;;;;;9.25;1.98;;;;;;;17.63;100.00;98950.50;5112884;28;20046;-87
2023/10/19 12:06:28;;;;;;;10.68;1.67;;;;;;;17.60;100.00;98953.84;5112643;28;20034;-87
2023/10/19 12:08:55;;;;;;;8.00;1.77;;;;;;;17.60;100.00;98945.63;5112814;28;20031;-86